Greenville, Mississippi
Current Conditions -  °F | °C
As of 4:53 AM on Saturday 22 Nov 2014 (Local Time) from KGLH Reporting Station
Overcast Overcast  
Wind Chill: 53°   Ceiling: 8500
Heat Index: 53°   Visibility: 9mi
Dew Point: 49°   Wind: 5mph
Humidity: 86%   Direction: 130°SE
Pressure: 30.25"   Gusts: NA
Location:  33.4°N, 91.04°W
Report Text: KGLH 221053Z AUTO 13004KT 9SM OVC085 12/09 A3025 RMK AO2 SLP249 T01170094
Loading
Personal Weather Stations






























Interactive Weather Map New forecast layout! Learn more

10-Day Weather Forecast

Advertisements
Track Severe Weather on mobile